Time;durP1;ratioP1;P1;durP2;ratioP2;P2;SDS_P1;SDS_P2;PMS_P1;PMS_P2;Temp;Humidity;BMP_temperature;BMP_pressure;BME280_temperature;BME280_humidity;BME280_pressure;Samples;Min_cycle;Max_cycle;Signal;HPM_P1;HPM_P2
2023/08/11 00:00:41;;;;;;;8.60;3.10;;;;;;;9.76;74.10;100373.42;218740;1257;140161;-70
2023/08/11 00:06:08;;;;;;;5.30;2.60;;;;;;;9.76;74.09;100372.17;220614;1257;140034;-70
2023/08/11 00:11:14;;;;;;;4.40;3.10;;;;;;;9.69;74.03;100370.99;220617;1257;140049;-70
2023/08/11 00:16:22;;;;;;;3.80;3.40;;;;;;;9.58;73.86;100365.02;220445;1255;139925;-71
2023/08/11 00:21:26;;;;;;;10.50;4.00;;;;;;;9.51;73.84;100357.80;220578;1256;141180;-70
2023/08/11 00:26:32;;;;;;;5.40;3.30;;;;;;;9.50;74.34;100355.34;220504;1257;140001;-70
2023/08/11 00:35:05;;;;;;;3.70;3.40;;;;;;;9.49;74.40;100351.89;215437;1296;636384;-69
2023/08/11 00:40:11;;;;;;;6.60;4.10;;;;;;;9.44;74.66;100355.70;218110;1257;139155;-68
2023/08/11 00:45:17;;;;;;;3.80;3.30;;;;;;;9.43;74.68;100358.10;218204;1254;174885;-69
2023/08/11 00:50:22;;;;;;;6.30;4.00;;;;;;;9.40;74.62;100358.45;219496;1253;139800;-69
2023/08/11 00:55:27;;;;;;;6.30;3.30;;;;;;;9.32;74.65;100357.04;218634;1254;138994;-69
2023/08/11 01:00:32;;;;;;;7.30;3.70;;;;;;;9.22;74.69;100360.14;220892;1253;139324;-69
2023/08/11 01:05:47;;;;;;;6.20;3.60;;;;;;;9.14;74.86;100356.02;218900;1253;139593;-68
2023/08/11 01:11:04;;;;;;;4.80;4.30;;;;;;;9.09;75.21;100355.20;219588;1254;139561;-68
2023/08/11 01:16:08;;;;;;;4.70;3.50;;;;;;;9.06;75.47;100356.73;220931;1252;140702;-70
2023/08/11 01:21:16;;;;;;;4.20;3.70;;;;;;;9.01;75.41;100356.78;220876;1253;140526;-71
2023/08/11 01:26:22;;;;;;;4.00;3.30;;;;;;;8.97;75.55;100352.66;219814;1253;139698;-70
2023/08/11 01:31:26;;;;;;;4.10;3.60;;;;;;;8.93;75.69;100353.80;220635;1254;140148;-70
2023/08/11 01:36:32;;;;;;;3.80;3.40;;;;;;;8.90;75.80;100353.28;220496;1255;139798;-71
2023/08/11 01:41:39;;;;;;;3.50;3.20;;;;;;;8.89;75.98;100351.36;219142;1255;139806;-70
2023/08/11 01:46:47;;;;;;;4.00;3.60;;;;;;;8.90;75.82;100352.14;219040;1254;139752;-71
2023/08/11 01:51:53;;;;;;;3.10;2.80;;;;;;;8.87;75.86;100359.73;218325;1256;139539;-70
2023/08/11 01:56:59;;;;;;;3.80;2.60;;;;;;;8.83;75.88;100353.73;218294;1254;139631;-71
2023/08/11 02:02:04;;;;;;;3.80;2.70;;;;;;;8.74;75.80;100352.55;218678;1254;140370;-71
2023/08/11 02:07:08;;;;;;;4.70;3.50;;;;;;;8.69;76.25;100355.55;217917;1258;140155;-71
2023/08/11 02:12:13;;;;;;;7.20;4.30;;;;;;;8.62;76.41;100358.41;219039;1255;139000;-70
2023/08/11 02:17:19;;;;;;;6.90;3.20;;;;;;;8.58;76.63;100361.81;218342;1258;139700;-70
2023/08/11 02:22:25;;;;;;;5.00;3.80;;;;;;;8.56;76.62;100368.44;218078;1255;206171;-71
2023/08/11 02:27:30;;;;;;;5.40;3.80;;;;;;;8.55;76.82;100369.08;217897;1254;138910;-70
2023/08/11 02:32:35;;;;;;;6.40;4.10;;;;;;;8.47;76.72;100367.02;218475;1254;139688;-70
2023/08/11 02:37:41;;;;;;;8.20;4.80;;;;;;;8.40;76.81;100369.08;218554;1256;140137;-70
2023/08/11 02:42:54;;;;;;;10.30;4.70;;;;;;;8.33;76.88;100368.52;217989;1254;139378;-71
2023/08/11 02:47:59;;;;;;;9.50;4.90;;;;;;;8.27;77.07;100372.39;218330;1254;139820;-72
2023/08/11 02:53:05;;;;;;;11.00;6.30;;;;;;;8.25;77.16;100368.06;218158;1256;138965;-72
2023/08/11 02:58:11;;;;;;;9.60;5.90;;;;;;;8.21;76.88;100376.48;218553;1256;139836;-72
2023/08/11 03:03:17;;;;;;;12.90;6.40;;;;;;;8.16;77.63;100373.13;218005;1258;139313;-71
2023/08/11 03:08:22;;;;;;;6.80;4.00;;;;;;;8.15;77.46;100378.44;219820;1256;138881;-73
2023/08/11 03:13:28;;;;;;;5.00;3.50;;;;;;;8.13;77.12;100382.23;219801;1254;139380;-72
2023/08/11 03:18:34;;;;;;;5.30;3.20;;;;;;;8.13;77.34;100382.92;220651;1256;139951;-71
2023/08/11 03:23:39;;;;;;;5.40;3.10;;;;;;;8.10;77.40;100377.33;219514;1254;141371;-71
2023/08/11 03:28:44;;;;;;;5.40;3.00;;;;;;;8.03;77.07;100380.25;220023;1254;140568;-71
2023/08/11 03:33:49;;;;;;;2.80;2.60;;;;;;;8.05;77.74;100377.96;220450;1254;140329;-72
2023/08/11 03:38:53;;;;;;;3.50;2.60;;;;;;;8.08;77.64;100377.53;218343;1256;141287;-72
2023/08/11 03:44:00;;;;;;;5.30;3.60;;;;;;;8.12;77.93;100381.58;219355;1256;140684;-69
2023/08/11 03:49:07;;;;;;;5.00;2.70;;;;;;;8.16;77.98;100386.20;219267;1256;139448;-68
2023/08/11 03:54:12;;;;;;;3.40;2.80;;;;;;;8.27;78.20;100387.59;217890;1257;139325;-67
2023/08/11 03:59:18;;;;;;;4.20;3.90;;;;;;;8.29;77.83;100385.02;219164;1256;139307;-67
2023/08/11 04:04:22;;;;;;;4.20;3.20;;;;;;;8.28;78.07;100380.92;217866;1256;139641;-67
2023/08/11 04:09:27;;;;;;;6.00;3.30;;;;;;;8.28;78.64;100379.58;218726;1256;139439;-68
2023/08/11 04:14:32;;;;;;;8.20;3.90;;;;;;;8.39;78.53;100380.27;217855;1257;139170;-67
2023/08/11 04:19:38;;;;;;;24.70;6.00;;;;;;;8.58;78.86;100383.23;218049;1256;139052;-67
2023/08/11 04:24:43;;;;;;;14.10;5.30;;;;;;;8.74;78.90;100384.70;218196;1255;139715;-67
2023/08/11 04:29:48;;;;;;;8.10;5.60;;;;;;;8.89;79.09;100389.48;218758;1257;140529;-67
2023/08/11 04:34:53;;;;;;;13.10;5.80;;;;;;;9.13;79.21;100397.45;218677;1254;141479;-67
2023/08/11 04:39:57;;;;;;;16.40;7.90;;;;;;;9.43;79.31;100400.55;217817;1254;140394;-67
2023/08/11 04:45:03;;;;;;;14.40;7.00;;;;;;;9.64;79.53;100409.23;218116;1254;140115;-68
2023/08/11 04:50:08;;;;;;;10.10;5.60;;;;;;;9.95;80.19;100406.63;218757;1258;139340;-68
2023/08/11 04:55:14;;;;;;;8.70;5.30;;;;;;;10.37;81.06;100405.60;217920;1254;221857;-70
2023/08/11 05:00:20;;;;;;;11.50;7.20;;;;;;;10.73;81.34;100401.72;219997;1256;140411;-70
2023/08/11 05:05:26;;;;;;;6.90;6.30;;;;;;;11.02;81.44;100403.89;219838;1256;139848;-70
2023/08/11 05:10:31;;;;;;;68.60;12.00;;;;;;;11.30;81.31;100399.58;219645;1256;139626;-70
2023/08/11 05:15:37;;;;;;;12.30;6.90;;;;;;;11.51;81.20;100395.38;220394;1254;141545;-68
2023/08/11 05:20:43;;;;;;;;;;;;;;;11.69;81.00;100394.84;220646;1254;141945;-68
2023/08/11 05:25:49;;;;;;;5.50;4.90;;;;;;;11.95;81.40;100394.23;220908;1256;126606;-69
2023/08/11 05:30:56;;;;;;;6.70;4.20;;;;;;;12.36;81.41;100393.99;220396;1256;140387;-69
2023/08/11 05:36:01;;;;;;;8.20;5.50;;;;;;;12.78;81.13;100390.34;219137;1254;140125;-73
2023/08/11 05:41:06;;;;;;;4.90;4.30;;;;;;;13.33;81.25;100391.86;219678;1254;139495;-71
2023/08/11 05:46:11;;;;;;;5.00;3.60;;;;;;;15.07;78.63;100390.86;218748;1257;139939;-72
2023/08/11 05:51:17;;;;;;;6.70;4.90;;;;;;;18.57;73.50;100390.35;218548;1258;141210;-69
2023/08/11 05:56:22;;;;;;;5.40;4.90;;;;;;;19.22;73.00;100390.80;218523;1256;140566;-68
2023/08/11 06:01:28;;;;;;;5.80;5.20;;;;;;;18.80;72.19;100389.99;218995;1254;140389;-69
2023/08/11 06:06:34;;;;;;;5.00;3.70;;;;;;;18.35;71.06;100385.42;218650;1257;139623;-69
2023/08/11 06:11:39;;;;;;;5.30;3.50;;;;;;;18.11;70.53;100387.02;217948;1257;139125;-68
2023/08/11 06:16:43;;;;;;;6.90;3.40;;;;;;;18.04;70.63;100381.75;218724;1256;140796;-68
2023/08/11 06:21:55;;;;;;;3.40;2.60;;;;;;;17.94;70.21;100385.77;218361;1254;139906;-69
2023/08/11 06:27:02;;;;;;;4.10;3.20;;;;;;;17.90;70.01;100382.73;218501;1256;139985;-71
2023/08/11 06:32:07;;;;;;;3.60;2.80;;;;;;;17.97;69.89;100387.08;218662;1256;139998;-68
2023/08/11 06:37:11;;;;;;;4.20;2.50;;;;;;;18.08;69.42;100389.83;219229;1255;140718;-69
2023/08/11 06:42:17;;;;;;;2.50;2.30;;;;;;;18.22;69.21;100401.51;219580;1256;139570;-69
2023/08/11 06:47:23;;;;;;;3.70;2.80;;;;;;;18.38;68.28;100405.77;218078;1256;140137;-69
2023/08/11 06:52:29;;;;;;;3.40;2.60;;;;;;;18.85;67.60;100410.79;218497;1256;139583;-69
2023/08/11 06:57:36;;;;;;;11.20;2.80;;;;;;;19.72;66.62;100409.80;219028;1257;139216;-70
2023/08/11 07:02:43;;;;;;;3.60;2.50;;;;;;;21.07;65.26;100415.02;218494;1257;140413;-69
2023/08/11 07:07:48;;;;;;;2.60;2.20;;;;;;;22.93;63.42;100412.29;220703;1256;140286;-68
2023/08/11 07:12:53;;;;;;;3.60;2.80;;;;;;;24.67;60.18;100420.76;220587;1254;139552;-69
2023/08/11 07:17:58;;;;;;;5.80;3.80;;;;;;;25.92;58.44;100419.20;218830;1256;139071;-67
2023/08/11 07:23:03;;;;;;;4.60;2.90;;;;;;;26.67;56.77;100423.04;220718;1257;139500;-69
2023/08/11 07:28:08;;;;;;;4.40;3.00;;;;;;;27.27;55.15;100427.61;218805;1256;138592;-69
2023/08/11 07:33:13;;;;;;;2.80;2.60;;;;;;;27.59;53.34;100431.77;218483;1258;139779;-69
2023/08/11 07:38:20;;;;;;;3.90;3.00;;;;;;;27.49;52.04;100440.94;218894;1256;139242;-68
2023/08/11 07:43:24;;;;;;;4.80;2.60;;;;;;;27.48;51.14;100446.36;217822;1257;139712;-71
2023/08/11 07:48:28;;;;;;;5.00;2.10;;;;;;;27.42;50.56;100449.96;219279;1256;139482;-71
2023/08/11 07:53:33;;;;;;;5.10;2.60;;;;;;;27.49;50.22;100453.14;218203;1257;139505;-70
2023/08/11 07:58:37;;;;;;;2.80;2.60;;;;;;;27.41;49.28;100455.54;218928;1258;139085;-72
2023/08/11 08:03:42;;;;;;;4.90;2.00;;;;;;;27.21;48.29;100448.48;218497;1258;139047;-71
2023/08/11 08:08:46;;;;;;;;;;;;;;;27.13;48.29;100450.73;218299;1255;138502;-72
2023/08/11 08:13:50;;;;;;;2.90;2.20;;;;;;;26.95;47.90;100455.66;218915;1257;127644;-67
2023/08/11 08:18:55;;;;;;;2.10;2.00;;;;;;;26.93;47.69;100449.60;217952;1254;139854;-68
2023/08/11 08:23:59;;;;;;;3.30;2.10;;;;;;;27.01;46.76;100452.48;218772;1255;139060;-67
2023/08/11 08:29:05;;;;;;;2.30;1.50;;;;;;;27.07;45.97;100457.91;218078;1257;140320;-69
2023/08/11 08:34:09;;;;;;;3.00;1.80;;;;;;;27.09;45.68;100462.21;218073;1257;139907;-68
2023/08/11 08:39:12;;;;;;;2.80;1.40;;;;;;;27.06;45.66;100459.03;217982;1257;138667;-67
2023/08/11 08:44:20;;;;;;;1.90;1.80;;;;;;;26.95;45.25;100454.73;218840;1258;139045;-69
2023/08/11 08:49:27;;;;;;;2.10;1.80;;;;;;;26.91;45.28;100452.34;218879;1257;139313;-69
2023/08/11 08:54:32;;;;;;;3.40;1.60;;;;;;;26.94;44.41;100450.34;218771;1257;140355;-69
2023/08/11 08:59:39;;;;;;;3.30;2.10;;;;;;;26.92;44.42;100448.50;218326;1258;139262;-68
2023/08/11 09:04:45;;;;;;;1.90;1.80;;;;;;;27.01;44.28;100448.52;219104;1257;139072;-70
2023/08/11 09:09:50;;;;;;;2.50;1.80;;;;;;;27.08;43.72;100450.52;218124;1256;139294;-70
2023/08/11 09:14:54;;;;;;;2.40;2.20;;;;;;;27.09;43.26;100447.30;218728;1258;139555;-68
2023/08/11 09:19:59;;;;;;;1.90;1.80;;;;;;;27.18;42.84;100450.38;219498;1256;140198;-69
2023/08/11 09:25:03;;;;;;;1.90;1.70;;;;;;;27.23;42.95;100445.73;220591;1259;139464;-70
2023/08/11 09:30:09;;;;;;;4.30;2.30;;;;;;;27.29;42.75;100445.57;218416;1255;139026;-73
2023/08/11 09:35:21;;;;;;;3.90;1.80;;;;;;;27.11;41.72;100442.00;220122;1257;139698;-69
2023/08/11 09:40:26;;;;;;;2.20;1.80;;;;;;;26.92;42.13;100431.20;219626;1257;138909;-67
2023/08/11 09:45:31;;;;;;;2.00;1.50;;;;;;;27.06;42.29;100432.30;219194;1258;138988;-68
2023/08/11 09:50:37;;;;;;;2.50;2.30;;;;;;;27.35;41.56;100428.77;218930;1254;140167;-68
2023/08/11 09:55:43;;;;;;;4.90;2.40;;;;;;;27.33;41.28;100431.52;218743;1258;139415;-69
2023/08/11 10:00:49;;;;;;;2.60;1.90;;;;;;;26.94;41.25;100432.33;218633;1258;139786;-71
2023/08/11 10:05:54;;;;;;;;;;;;;;;26.78;40.81;100426.80;218518;1256;139775;-69
2023/08/11 10:11:00;;;;;;;2.30;2.20;;;;;;;26.64;41.13;100430.55;220788;1255;125965;-69
2023/08/11 10:16:06;;;;;;;1.90;1.80;;;;;;;26.95;41.15;100426.09;218728;1256;138912;-69
2023/08/11 10:21:12;;;;;;;2.70;2.00;;;;;;;26.79;40.48;100434.05;218637;1257;140188;-68
2023/08/11 10:26:19;;;;;;;7.30;2.40;;;;;;;26.80;40.53;100440.00;218466;1257;139762;-65
2023/08/11 10:31:25;;;;;;;2.10;1.90;;;;;;;26.81;40.62;100438.48;218651;1258;138989;-69
2023/08/11 10:36:32;;;;;;;2.00;1.70;;;;;;;26.78;40.43;100433.83;218669;1255;140285;-68
2023/08/11 10:41:45;;;;;;;2.00;1.90;;;;;;;26.72;40.18;100441.14;218384;1256;139466;-68
2023/08/11 10:46:51;;;;;;;2.80;2.30;;;;;;;26.85;40.51;100436.70;219352;1255;139572;-68
2023/08/11 10:52:00;;;;;;;6.60;2.60;;;;;;;26.87;40.42;100439.66;218366;1256;140033;-67
2023/08/11 10:57:06;;;;;;;3.10;2.10;;;;;;;27.00;40.30;100433.92;218932;1258;139743;-67
2023/08/11 11:02:12;;;;;;;2.00;1.90;;;;;;;27.37;40.22;100432.30;218281;1258;140011;-67
2023/08/11 11:07:22;;;;;;;3.80;2.30;;;;;;;27.60;40.00;100443.04;219434;1258;234256;-66
2023/08/11 11:12:26;;;;;;;8.30;2.20;;;;;;;27.33;39.62;100441.20;218953;1255;141679;-68
2023/08/11 11:17:31;;;;;;;3.10;2.40;;;;;;;27.21;39.51;100445.34;218802;1257;140582;-67
2023/08/11 11:22:38;;;;;;;2.20;2.00;;;;;;;27.40;39.06;100444.23;219315;1257;140806;-68
2023/08/11 11:27:44;;;;;;;2.90;2.60;;;;;;;27.75;39.29;100437.22;219809;1254;139441;-65
2023/08/11 11:32:49;;;;;;;3.00;2.40;;;;;;;27.94;39.04;100435.73;219404;1254;203646;-68
2023/08/11 11:37:54;;;;;;;3.00;2.60;;;;;;;27.93;39.15;100440.39;219474;1259;139377;-69
2023/08/11 11:43:00;;;;;;;2.60;2.20;;;;;;;28.01;38.64;100434.89;218400;1259;138831;-66
2023/08/11 11:48:05;;;;;;;5.50;2.10;;;;;;;27.83;38.61;100436.02;218863;1254;141006;-69
2023/08/11 11:53:10;;;;;;;;;;;;;;;27.45;38.65;100439.92;218312;1257;138951;-68
2023/08/11 11:58:17;;;;;;;;;;;;;;;27.00;38.67;100436.19;219317;1257;126316;-68
2023/08/11 12:03:23;;;;;;;2.90;1.90;;;;;;;27.06;39.29;100430.58;218596;1258;126322;-68
2023/08/11 12:08:29;;;;;;;5.60;2.00;;;;;;;27.17;38.33;100428.52;218374;1257;139143;-69
2023/08/11 12:13:41;;;;;;;2.90;1.80;;;;;;;26.42;38.16;100434.36;218147;1256;139120;-68
2023/08/11 12:18:51;;;;;;;2.60;1.90;;;;;;;26.02;38.79;100434.03;218418;1257;140494;-67
2023/08/11 12:23:59;;;;;;;7.30;1.90;;;;;;;25.81;39.24;100437.74;218384;1254;138949;-67
2023/08/11 12:29:05;;;;;;;6.30;2.40;;;;;;;25.60;39.60;100436.73;218801;1259;139610;-67
2023/08/11 12:34:11;;;;;;;3.50;2.00;;;;;;;25.83;39.80;100435.98;218182;1259;139088;-68
2023/08/11 12:39:16;;;;;;;2.40;2.20;;;;;;;26.02;39.66;100434.73;217874;1256;139827;-68
2023/08/11 12:44:20;;;;;;;2.90;1.60;;;;;;;26.38;39.53;100430.51;218417;1259;139023;-70
2023/08/11 12:49:25;;;;;;;2.40;2.00;;;;;;;26.53;38.87;100424.79;217809;1256;553499;-68
2023/08/11 12:54:29;;;;;;;5.90;2.50;;;;;;;26.03;38.57;100428.86;219591;1257;139480;-67
2023/08/11 12:59:33;;;;;;;3.70;2.30;;;;;;;25.88;39.19;100425.36;218596;1256;138827;-67
2023/08/11 13:04:37;;;;;;;3.90;2.00;;;;;;;25.92;39.22;100425.52;219036;1256;139292;-69
2023/08/11 13:09:41;;;;;;;3.20;2.30;;;;;;;25.92;39.10;100422.23;218532;1257;139350;-68
2023/08/11 13:14:46;;;;;;;2.00;1.80;;;;;;;26.01;39.39;100421.18;220440;1256;139710;-71
2023/08/11 13:19:53;;;;;;;2.80;1.90;;;;;;;26.12;39.00;100419.06;219361;1257;139076;-74
2023/08/11 13:24:57;;;;;;;3.10;1.70;;;;;;;26.15;38.83;100416.42;218227;1256;138779;-71
2023/08/11 13:30:02;;;;;;;3.60;1.10;;;;;;;26.35;38.94;100414.15;218812;1257;139875;-69
2023/08/11 13:35:08;;;;;;;2.60;2.10;;;;;;;26.39;38.63;100416.11;218852;1259;141031;-69
2023/08/11 13:40:12;;;;;;;2.20;2.10;;;;;;;26.18;38.47;100423.27;218632;1260;139804;-70
2023/08/11 13:45:17;;;;;;;4.70;1.70;;;;;;;26.27;38.25;100420.73;218015;1257;139771;-68
2023/08/11 13:50:21;;;;;;;2.40;1.50;;;;;;;26.37;38.68;100415.33;218083;1255;139129;-69
2023/08/11 13:55:26;;;;;;;3.90;1.60;;;;;;;26.40;38.50;100410.96;218197;1260;139619;-70
2023/08/11 14:00:32;;;;;;;3.70;1.70;;;;;;;26.10;38.21;100413.63;218138;1254;139872;-70
2023/08/11 14:05:37;;;;;;;4.70;2.40;;;;;;;25.98;38.51;100413.95;219403;1258;138967;-71
2023/08/11 14:10:42;;;;;;;;;;;;;;;25.95;38.94;100419.05;218437;1254;139216;-71
2023/08/11 14:15:49;;;;;;;3.80;1.80;;;;;;;25.98;38.60;100413.90;218781;1254;125983;-69
2023/08/11 14:21:00;;;;;;;7.20;1.80;;;;;;;26.01;38.53;100413.91;218479;1255;139219;-70
2023/08/11 14:26:06;;;;;;;3.80;1.80;;;;;;;25.96;38.50;100413.31;219024;1258;138804;-69
2023/08/11 14:31:10;;;;;;;4.60;2.20;;;;;;;25.99;38.75;100407.82;218212;1256;139791;-71
2023/08/11 14:36:15;;;;;;;3.60;2.10;;;;;;;26.05;39.01;100406.84;218819;1259;139261;-75
2023/08/11 14:41:21;;;;;;;3.30;1.90;;;;;;;26.11;38.77;100411.12;218308;1259;139412;-73
2023/08/11 14:46:28;;;;;;;4.40;1.90;;;;;;;26.29;38.53;100410.41;218896;1259;138770;-68
2023/08/11 14:51:32;;;;;;;1.90;1.70;;;;;;;26.37;38.24;100407.75;218677;1259;140823;-68
2023/08/11 14:56:40;;;;;;;6.10;2.00;;;;;;;26.40;37.82;100409.67;218801;1259;139239;-69
2023/08/11 15:01:47;;;;;;;2.90;2.00;;;;;;;26.31;37.91;100412.93;218694;1256;139523;-70
2023/08/11 15:06:52;;;;;;;1.90;1.70;;;;;;;26.18;37.71;100405.72;218738;1254;139624;-68
2023/08/11 15:12:01;;;;;;;9.00;2.40;;;;;;;26.11;37.84;100405.17;218605;1259;139780;-68
2023/08/11 15:17:15;;;;;;;1.70;1.60;;;;;;;26.00;37.54;100410.45;219864;1254;138904;-68
2023/08/11 15:22:30;;;;;;;4.10;2.40;;;;;;;25.79;37.55;100412.30;219239;1257;139771;-69
2023/08/11 15:27:45;;;;;;;5.70;1.90;;;;;;;25.46;38.03;100411.98;218526;1255;140183;-69
2023/08/11 15:32:56;;;;;;;3.40;2.10;;;;;;;25.37;38.14;100417.13;218622;1255;140063;-72
2023/08/11 15:38:05;;;;;;;2.20;2.10;;;;;;;25.29;38.25;100410.91;218196;1257;140797;-71
2023/08/11 15:43:18;;;;;;;2.70;2.10;;;;;;;25.16;38.15;100407.33;218728;1258;141613;-69
2023/08/11 15:48:34;;;;;;;5.20;2.40;;;;;;;25.07;38.20;100400.74;218756;1254;140312;-71
2023/08/11 15:53:46;;;;;;;3.40;2.30;;;;;;;25.03;38.67;100397.73;218216;1257;140043;-71
2023/08/11 15:58:55;;;;;;;9.20;2.40;;;;;;;24.91;38.71;100396.79;218208;1256;138810;-70
2023/08/11 16:04:03;;;;;;;4.70;2.10;;;;;;;24.81;39.10;100396.11;217996;1256;139264;-67
2023/08/11 16:09:07;;;;;;;5.50;2.10;;;;;;;24.72;39.49;100391.50;218672;1257;138912;-67
2023/08/11 16:14:13;;;;;;;2.40;1.80;;;;;;;24.59;39.47;100389.59;218555;1257;139887;-67
2023/08/11 16:19:21;;;;;;;1.50;1.40;;;;;;;24.41;39.28;100392.39;218161;1254;139539;-69
2023/08/11 16:24:26;;;;;;;3.20;1.50;;;;;;;24.23;39.64;100393.38;218810;1254;139756;-68
2023/08/11 16:29:38;;;;;;;3.20;1.70;;;;;;;23.96;39.76;100393.25;218375;1257;140172;-68
2023/08/11 16:34:47;;;;;;;;;;;;;;;23.69;40.02;100398.48;217820;1257;140376;-67
2023/08/11 16:39:54;;;;;;;2.20;2.00;;;;;;;23.52;40.28;100394.97;218846;1254;125415;-69
2023/08/11 16:45:01;;;;;;;;;;;;;;;23.45;40.79;100397.71;218698;1254;143168;-67
2023/08/11 16:50:09;;;;;;;1.90;1.60;;;;;;;23.36;41.45;100400.77;218465;1257;126132;-68
2023/08/11 16:55:15;;;;;;;3.40;2.00;;;;;;;23.28;41.53;100403.33;220703;1254;139595;-67
2023/08/11 17:00:21;;;;;;;1.60;1.50;;;;;;;23.18;41.64;100398.66;219023;1254;140594;-67
2023/08/11 17:05:27;;;;;;;2.50;1.60;;;;;;;23.05;41.95;100404.34;220081;1258;138887;-68
2023/08/11 17:10:31;;;;;;;3.30;2.00;;;;;;;22.88;42.12;100402.31;220320;1254;139489;-72
2023/08/11 17:15:37;;;;;;;3.50;1.80;;;;;;;22.71;42.33;100406.11;219248;1254;140219;-69
2023/08/11 17:20:41;;;;;;;1.80;1.70;;;;;;;22.59;43.01;100406.72;219341;1254;139207;-69
2023/08/11 17:25:48;;;;;;;6.40;2.00;;;;;;;22.43;43.31;100411.49;219331;1254;140429;-68
2023/08/11 17:31:00;;;;;;;2.20;2.00;;;;;;;22.25;43.43;100414.94;218006;1254;138882;-68
2023/08/11 17:36:07;;;;;;;7.10;2.10;;;;;;;22.06;44.36;100423.59;219012;1254;139501;-69
2023/08/11 17:41:17;;;;;;;2.00;1.90;;;;;;;21.80;44.92;100422.52;219395;1254;152366;-69
2023/08/11 17:46:26;;;;;;;4.00;1.80;;;;;;;21.55;45.57;100427.04;218694;1254;140159;-68
2023/08/11 17:51:34;;;;;;;3.10;2.00;;;;;;;21.29;46.19;100427.52;218649;1254;139616;-69
2023/08/11 17:56:39;;;;;;;5.70;2.30;;;;;;;21.03;46.74;100429.49;218283;1257;139266;-68
2023/08/11 18:01:44;;;;;;;2.80;2.40;;;;;;;20.75;47.41;100429.17;218926;1254;140290;-68
2023/08/11 18:06:53;;;;;;;4.50;2.20;;;;;;;20.47;48.32;100431.70;218192;1254;139065;-68
2023/08/11 18:12:07;;;;;;;4.00;2.00;;;;;;;20.16;49.08;100441.86;218554;1256;139875;-68
2023/08/11 18:17:14;;;;;;;3.00;2.00;;;;;;;19.86;49.82;100447.06;218689;1254;139008;-68
2023/08/11 18:22:20;;;;;;;2.40;1.90;;;;;;;19.61;50.63;100455.08;219092;1256;138955;-68
2023/08/11 18:27:25;;;;;;;3.10;2.00;;;;;;;19.33;51.66;100463.27;218686;1254;139187;-69
2023/08/11 18:32:34;;;;;;;2.80;2.00;;;;;;;18.98;52.23;100468.38;218699;1259;138593;-69
2023/08/11 18:37:40;;;;;;;5.00;1.80;;;;;;;18.65;53.10;100470.21;219116;1254;139057;-68
2023/08/11 18:42:51;;;;;;;3.30;2.10;;;;;;;18.25;53.66;100475.99;219755;1254;139805;-70
2023/08/11 18:48:01;;;;;;;2.50;2.00;;;;;;;17.86;54.88;100481.71;219648;1254;139232;-68
2023/08/11 18:53:06;;;;;;;1.90;1.80;;;;;;;17.59;55.68;100481.10;219963;1254;139537;-69
2023/08/11 18:58:11;;;;;;;9.90;2.50;;;;;;;17.39;56.47;100484.55;220680;1254;140792;-69
2023/08/11 19:03:19;;;;;;;2.00;1.90;;;;;;;17.29;56.77;100488.98;220774;1254;140813;-70
2023/08/11 19:08:27;;;;;;;2.80;1.90;;;;;;;17.11;56.91;100490.41;219708;1254;139122;-69
2023/08/11 19:13:34;;;;;;;2.70;2.30;;;;;;;16.82;57.10;100488.38;219821;1254;139261;-68
2023/08/11 19:18:42;;;;;;;2.50;2.20;;;;;;;16.59;57.78;100486.23;220208;1254;139896;-68
2023/08/11 19:23:48;;;;;;;2.70;2.50;;;;;;;16.40;58.27;100490.14;217932;1255;140242;-68
2023/08/11 19:28:56;;;;;;;1.90;1.70;;;;;;;16.23;58.80;100496.58;218943;1256;139065;-70
2023/08/11 19:34:02;;;;;;;7.80;2.30;;;;;;;16.02;59.23;100498.94;218553;1254;141757;-71
2023/08/11 19:39:12;;;;;;;;;;;;;;;15.76;59.58;100504.38;218720;1254;139216;-70
2023/08/11 19:44:31;;;;;;;2.70;1.60;;;;;;;15.47;60.36;100497.59;218270;1254;126918;-71
2023/08/11 19:49:46;;;;;;;7.60;2.50;;;;;;;15.33;60.91;100498.71;218601;1254;139654;-71
2023/08/11 19:54:53;;;;;;;2.10;2.00;;;;;;;15.25;61.39;100501.20;218064;1258;139946;-70
2023/08/11 20:00:04;;;;;;;2.90;2.70;;;;;;;15.06;61.51;100495.80;218343;1254;140894;-70
2023/08/11 20:05:11;;;;;;;4.20;2.10;;;;;;;14.80;61.91;100496.58;218204;1254;140410;-70
2023/08/11 20:10:15;;;;;;;4.80;3.00;;;;;;;14.66;62.52;100497.70;218414;1259;139729;-70
2023/08/11 20:15:20;;;;;;;4.00;2.30;;;;;;;14.62;63.05;100502.14;218070;1254;140963;-70
2023/08/11 20:20:24;;;;;;;5.90;2.80;;;;;;;14.47;62.95;100498.38;218607;1254;140455;-70
2023/08/11 20:25:29;;;;;;;3.80;2.40;;;;;;;14.26;63.69;100500.08;218501;1254;139608;-70
2023/08/11 20:30:35;;;;;;;5.60;2.80;;;;;;;14.16;64.22;100496.38;218304;1257;140356;-69
2023/08/11 20:35:43;;;;;;;4.00;2.60;;;;;;;14.09;64.63;100504.41;218843;1254;140077;-67
2023/08/11 20:40:47;;;;;;;4.80;3.30;;;;;;;14.03;64.94;100503.66;217967;1259;239370;-69
2023/08/11 20:45:52;;;;;;;4.50;3.70;;;;;;;13.94;65.34;100510.55;217986;1255;139136;-69
2023/08/11 20:51:08;;;;;;;4.60;3.70;;;;;;;13.85;65.43;100509.67;219224;1254;139842;-70
2023/08/11 20:56:12;;;;;;;5.20;4.20;;;;;;;13.74;65.47;100508.92;220747;1256;141365;-70
2023/08/11 21:01:16;;;;;;;5.80;3.50;;;;;;;13.55;65.84;100513.82;218719;1254;139162;-70
2023/08/11 21:06:20;;;;;;;9.80;4.20;;;;;;;13.39;66.42;100512.13;220842;1254;140535;-70
2023/08/11 21:11:23;;;;;;;12.90;3.60;;;;;;;13.31;66.69;100517.99;220946;1254;140760;-70
2023/08/11 21:16:27;;;;;;;4.60;4.00;;;;;;;13.25;67.06;100520.27;219268;1254;140682;-70
2023/08/11 21:21:34;;;;;;;9.70;4.50;;;;;;;13.21;67.29;100515.69;220181;1253;140867;-69
2023/08/11 21:26:38;;;;;;;4.20;3.20;;;;;;;13.12;67.31;100512.69;218471;1256;140647;-69
2023/08/11 21:31:42;;;;;;;6.00;4.00;;;;;;;13.02;67.51;100506.55;219740;1254;140882;-70
2023/08/11 21:36:45;;;;;;;6.40;4.10;;;;;;;12.87;68.16;100505.75;218178;1254;140258;-69
2023/08/11 21:41:49;;;;;;;5.60;4.30;;;;;;;12.77;68.21;100500.44;219030;1256;139725;-70
2023/08/11 21:46:53;;;;;;;5.70;4.00;;;;;;;12.69;68.60;100499.27;218482;1257;141057;-70
2023/08/11 21:51:57;;;;;;;5.20;4.50;;;;;;;12.66;68.87;100497.84;218065;1257;140596;-69
2023/08/11 21:57:01;;;;;;;8.30;4.50;;;;;;;12.55;68.80;100500.19;217945;1258;139972;-70
2023/08/11 22:02:04;;;;;;;6.50;4.10;;;;;;;12.43;69.28;100498.56;218391;1254;139879;-69
2023/08/11 22:07:09;;;;;;;5.90;3.80;;;;;;;12.34;69.42;100496.92;219541;1254;140701;-69
2023/08/11 22:12:13;;;;;;;4.20;3.80;;;;;;;12.19;69.73;100494.98;218411;1254;139924;-69
2023/08/11 22:17:17;;;;;;;7.00;4.40;;;;;;;12.05;70.02;100496.57;218427;1254;141623;-69
2023/08/11 22:22:21;;;;;;;8.50;5.10;;;;;;;12.02;70.60;100492.21;218107;1254;139816;-69
2023/08/11 22:27:27;;;;;;;7.70;4.10;;;;;;;12.00;70.51;100494.58;218311;1254;139710;-69
2023/08/11 22:32:32;;;;;;;14.80;6.00;;;;;;;11.91;70.69;100495.49;219334;1255;139562;-69
2023/08/11 22:37:36;;;;;;;4.90;3.70;;;;;;;11.79;71.00;100496.77;218229;1258;139739;-69
2023/08/11 22:42:40;;;;;;;5.20;4.70;;;;;;;11.69;71.32;100492.42;220770;1254;140472;-70
2023/08/11 22:47:44;;;;;;;4.80;4.00;;;;;;;11.63;71.49;100490.77;220693;1254;140017;-70
2023/08/11 22:52:48;;;;;;;6.90;4.40;;;;;;;11.62;71.45;100490.59;220753;1254;139983;-69
2023/08/11 22:57:52;;;;;;;19.60;5.50;;;;;;;11.56;71.60;100496.13;220796;1254;141390;-70
2023/08/11 23:02:56;;;;;;;6.40;4.00;;;;;;;11.49;71.90;100497.35;220762;1254;140297;-70
2023/08/11 23:08:00;;;;;;;6.50;4.30;;;;;;;11.48;72.03;100495.30;220388;1254;139760;-70
2023/08/11 23:13:03;;;;;;;10.90;4.90;;;;;;;11.42;71.85;100485.46;219815;1254;140121;-69
2023/08/11 23:18:07;;;;;;;5.40;3.90;;;;;;;11.33;71.91;100484.66;218350;1254;141154;-69